Time;durP1;ratioP1;P1;durP2;ratioP2;P2;SDS_P1;SDS_P2;PMS_P1;PMS_P2;Temp;Humidity;BMP_temperature;BMP_pressure;BME280_temperature;BME280_humidity;BME280_pressure;Samples;Min_cycle;Max_cycle;Signal;HPM_P1;HPM_P2
2024/02/18 00:00:00;;;;;;;6.25;4.20;;;22.80;59.90;;;;;;6143690;22;92089;-60
2024/02/18 00:02:27;;;;;;;5.97;4.93;;;22.80;59.90;;;;;;6148252;22;93656;-59
2024/02/18 00:04:53;;;;;;;6.60;4.15;;;22.80;59.80;;;;;;6122627;22;94434;-60
2024/02/18 00:07:20;;;;;;;4.65;4.00;;;22.80;59.90;;;;;;6147714;22;92211;-58
2024/02/18 00:09:46;;;;;;;5.43;3.70;;;22.80;60.10;;;;;;6120887;22;92819;-60
2024/02/18 00:12:11;;;;;;;6.07;4.22;;;22.80;59.90;;;;;;6148209;22;94035;-60
2024/02/18 00:14:37;;;;;;;7.47;4.18;;;22.70;60.00;;;;;;6121114;22;94025;-57
2024/02/18 00:17:03;;;;;;;7.63;4.18;;;22.70;59.80;;;;;;6148576;22;91893;-59
2024/02/18 00:19:28;;;;;;;7.10;4.25;;;22.70;60.00;;;;;;6149054;22;91776;-59
2024/02/18 00:21:55;;;;;;;6.68;4.47;;;22.70;59.90;;;;;;6144157;22;93468;-58
2024/02/18 00:24:21;;;;;;;11.43;4.93;;;22.60;59.90;;;;;;6149186;22;92681;-59
2024/02/18 00:26:50;;;;;;;5.10;4.55;;;22.60;59.80;;;;;;6121469;22;92825;-59
2024/02/18 00:29:17;;;;;;;7.43;4.28;;;22.60;60.20;;;;;;6147644;22;91440;-59
2024/02/18 00:31:43;;;;;;;6.70;4.18;;;22.60;60.50;;;;;;6123088;22;93754;-59
2024/02/18 00:34:09;;;;;;;4.95;3.95;;;22.60;60.40;;;;;;6122495;22;93779;-59
2024/02/18 00:36:36;;;;;;;4.63;3.42;;;22.50;60.30;;;;;;6137941;22;93812;-60
2024/02/18 00:39:01;;;;;;;5.15;4.07;;;22.50;60.40;;;;;;6117288;22;92439;-59
2024/02/18 00:41:27;;;;;;;5.30;4.28;;;22.50;60.40;;;;;;6144961;22;92659;-60
2024/02/18 00:43:53;;;;;;;6.82;4.03;;;22.50;60.60;;;;;;6150260;22;92671;-60
2024/02/18 00:46:18;;;;;;;5.50;3.67;;;22.50;60.40;;;;;;6146680;22;93272;-59
2024/02/18 00:48:44;;;;;;;5.10;3.97;;;22.50;60.50;;;;;;6146079;22;92074;-59
2024/02/18 00:51:11;;;;;;;4.82;3.67;;;22.50;60.50;;;;;;6121237;22;93479;-60
2024/02/18 00:53:37;;;;;;;6.10;3.80;;;22.40;60.30;;;;;;6121445;22;93873;-59
2024/02/18 00:56:03;;;;;;;5.70;3.88;;;22.40;60.50;;;;;;6149682;22;92468;-59
2024/02/18 00:58:28;;;;;;;6.28;3.90;;;22.40;60.30;;;;;;6150147;22;92740;-59
2024/02/18 01:00:54;;;;;;;8.00;4.28;;;22.40;60.40;;;;;;6147331;22;94212;-59
2024/02/18 01:03:19;;;;;;;4.32;3.38;;;22.40;60.40;;;;;;6147935;22;94199;-59
2024/02/18 01:05:45;;;;;;;6.38;3.75;;;22.40;60.20;;;;;;6148994;22;91887;-58
2024/02/18 01:08:13;;;;;;;4.43;3.45;;;22.40;60.20;;;;;;6118247;22;92652;-59
2024/02/18 01:10:40;;;;;;;5.22;3.70;;;22.40;60.40;;;;;;6149377;22;93827;-60
2024/02/18 01:13:06;;;;;;;4.70;3.42;;;22.40;60.20;;;;;;6148118;22;92447;-60
2024/02/18 01:15:33;;;;;;;4.28;3.55;;;22.30;60.40;;;;;;6121694;22;92653;-59
2024/02/18 01:18:00;;;;;;;6.00;3.67;;;22.30;60.40;;;;;;6121351;22;91553;-59
2024/02/18 01:20:27;;;;;;;5.00;3.25;;;22.20;60.10;;;;;;6147414;22;93869;-59
2024/02/18 01:22:53;;;;;;;4.88;3.85;;;22.20;60.30;;;;;;6123091;22;93166;-60
2024/02/18 01:25:18;;;;;;;6.57;4.07;;;22.20;60.30;;;;;;6121865;22;93229;-58
2024/02/18 01:27:45;;;;;;;4.53;3.55;;;22.20;60.40;;;;;;6146727;22;92333;-59
2024/02/18 01:30:11;;;;;;;4.68;3.40;;;22.20;60.30;;;;;;6147821;22;93686;-59
2024/02/18 01:32:38;;;;;;;4.82;3.55;;;22.20;60.40;;;;;;6145543;22;92722;-60
2024/02/18 01:35:04;;;;;;;5.07;3.47;;;22.20;60.30;;;;;;6119623;22;91924;-59
2024/02/18 01:37:31;;;;;;;4.38;3.30;;;22.20;60.60;;;;;;6146243;22;92555;-59
2024/02/18 01:39:57;;;;;;;5.53;3.60;;;22.20;60.60;;;;;;6119846;22;93625;-60
2024/02/18 01:42:24;;;;;;;4.57;3.33;;;22.10;60.50;;;;;;6121648;22;94288;-60
2024/02/18 01:44:50;;;;;;;5.18;3.20;;;22.10;60.50;;;;;;6122010;22;92368;-59
2024/02/18 01:47:19;;;;;;;4.95;3.92;;;22.10;60.40;;;;;;6122646;22;92689;-59
2024/02/18 01:49:44;;;;;;;4.88;3.67;;;22.10;60.50;;;;;;6122344;22;94464;-59
2024/02/18 01:52:12;;;;;;;3.58;3.00;;;22.10;60.20;;;;;;6145763;22;93626;-59
2024/02/18 01:54:39;;;;;;;4.18;3.25;;;22.10;60.60;;;;;;6148060;22;92093;-60
2024/02/18 01:57:06;;;;;;;5.13;3.33;;;22.10;59.90;;;;;;6148667;22;92446;-59
2024/02/18 01:59:32;;;;;;;3.97;3.00;;;22.10;60.10;;;;;;6147805;22;93459;-59
2024/02/18 02:01:59;;;;;;;5.55;3.63;;;22.10;60.10;;;;;;6121726;22;93615;-58
2024/02/18 02:04:27;;;;;;;4.05;3.00;;;22.00;60.10;;;;;;6149780;22;93355;-59
2024/02/18 02:06:53;;;;;;;4.90;3.53;;;22.10;60.00;;;;;;6143531;22;91614;-59
2024/02/18 02:09:20;;;;;;;4.25;2.90;;;22.00;59.80;;;;;;6148242;22;93089;-59
2024/02/18 02:11:46;;;;;;;4.20;3.42;;;22.00;60.20;;;;;;6120391;22;93172;-60
2024/02/18 02:14:13;;;;;;;4.82;3.60;;;22.00;60.00;;;;;;6120674;22;93271;-60
2024/02/18 02:16:39;;;;;;;4.20;3.08;;;22.00;60.00;;;;;;6122020;22;92661;-58
2024/02/18 02:19:05;;;;;;;5.30;3.58;;;22.00;60.10;;;;;;6115541;22;93313;-59
2024/02/18 02:21:31;;;;;;;5.40;4.10;;;21.90;60.10;;;;;;6148064;22;92687;-59
2024/02/18 02:23:57;;;;;;;4.20;2.75;;;21.90;59.90;;;;;;6120802;22;92074;-59
2024/02/18 02:26:24;;;;;;;5.30;3.42;;;21.90;60.00;;;;;;6149720;22;92401;-59
2024/02/18 02:29:12;;;;;;;3.88;3.03;;;21.90;60.00;;;;;;6149931;22;93130;-59
2024/02/18 02:31:42;;;;;;;4.55;2.92;;;21.90;60.10;;;;;;6118647;22;97467;-59
2024/02/18 02:34:08;;;;;;;4.32;3.40;;;21.90;59.90;;;;;;6148389;22;92358;-60
2024/02/18 02:36:34;;;;;;;5.00;3.13;;;21.90;59.90;;;;;;6113863;22;92526;-59
2024/02/18 02:38:59;;;;;;;4.43;3.58;;;21.90;59.80;;;;;;6145692;22;93946;-59
2024/02/18 02:41:26;;;;;;;5.13;2.83;;;21.90;59.80;;;;;;6147479;22;93941;-59
2024/02/18 02:43:52;;;;;;;4.13;3.10;;;21.80;59.90;;;;;;6097271;22;92453;-60
2024/02/18 02:46:18;;;;;;;4.72;3.50;;;21.80;60.00;;;;;;6149076;22;92921;-60
2024/02/18 02:48:48;;;;;;;4.55;3.22;;;21.80;60.20;;;;;;6121524;22;93869;-60
2024/02/18 02:51:15;;;;;;;3.78;3.15;;;21.80;60.00;;;;;;6121292;22;92889;-59
2024/02/18 02:53:42;;;;;;;3.25;2.95;;;21.80;59.90;;;;;;6117055;22;92580;-59
2024/02/18 02:56:08;;;;;;;4.60;3.42;;;21.80;59.80;;;;;;6115373;22;91663;-60
2024/02/18 02:58:34;;;;;;;3.83;3.13;;;21.80;59.80;;;;;;6122501;22;93359;-59
2024/02/18 03:01:01;;;;;;;3.97;2.85;;;21.80;59.80;;;;;;6148096;22;92839;-59
2024/02/18 03:03:28;;;;;;;4.38;3.20;;;21.80;59.70;;;;;;6120046;22;94051;-60
2024/02/18 03:05:55;;;;;;;4.78;2.97;;;21.80;59.60;;;;;;6096647;22;92718;-60
2024/02/18 03:08:21;;;;;;;4.28;2.85;;;21.80;59.70;;;;;;6120412;22;93791;-58
2024/02/18 03:10:48;;;;;;;4.43;3.00;;;21.80;59.70;;;;;;6121876;22;92281;-59
2024/02/18 03:13:14;;;;;;;3.80;2.90;;;21.70;59.60;;;;;;6121192;22;92379;-60
2024/02/18 03:15:40;;;;;;;4.22;2.83;;;21.80;59.70;;;;;;6120979;22;92051;-60
2024/02/18 03:18:05;;;;;;;4.53;2.97;;;21.70;59.50;;;;;;6147406;22;93016;-60
2024/02/18 03:20:32;;;;;;;4.32;2.83;;;21.70;59.60;;;;;;6142320;22;92138;-58
2024/02/18 03:22:59;;;;;;;3.35;2.95;;;21.70;59.70;;;;;;6116964;22;92218;-59
2024/02/18 03:25:25;;;;;;;4.32;3.22;;;21.70;59.50;;;;;;6121347;22;92966;-59
2024/02/18 03:27:51;;;;;;;3.70;2.97;;;21.70;59.50;;;;;;6146571;22;93966;-60
2024/02/18 03:30:16;;;;;;;4.25;3.00;;;21.70;59.40;;;;;;6141927;22;93668;-60
2024/02/18 03:32:42;;;;;;;4.43;2.50;;;21.70;59.40;;;;;;6148151;22;92138;-60
2024/02/18 03:35:08;;;;;;;4.30;2.75;;;21.60;59.70;;;;;;6148755;22;92161;-58
2024/02/18 03:37:34;;;;;;;4.82;2.88;;;21.60;59.60;;;;;;6123887;22;94512;-59
2024/02/18 03:40:00;;;;;;;3.20;2.70;;;21.60;59.60;;;;;;6119523;22;92944;-60
2024/02/18 03:42:27;;;;;;;2.83;2.35;;;21.60;59.60;;;;;;6123410;22;92484;-60
2024/02/18 03:44:54;;;;;;;3.85;2.67;;;21.60;59.70;;;;;;6143559;22;91893;-59
2024/02/18 03:47:23;;;;;;;3.60;2.83;;;21.60;59.60;;;;;;6149086;22;93996;-59
2024/02/18 03:49:49;;;;;;;4.80;2.92;;;21.60;59.60;;;;;;6151837;22;92804;-60
2024/02/18 03:52:15;;;;;;;4.15;2.50;;;21.60;59.60;;;;;;6151420;22;93646;-59
2024/02/18 03:54:40;;;;;;;4.57;3.25;;;21.60;59.60;;;;;;6151026;22;92312;-60
2024/02/18 03:57:06;;;;;;;4.53;2.53;;;21.60;59.70;;;;;;6151017;22;93084;-59
2024/02/18 03:59:32;;;;;;;4.03;3.20;;;21.60;59.50;;;;;;6141936;22;92406;-59
2024/02/18 04:01:58;;;;;;;3.42;2.65;;;21.50;59.40;;;;;;6151341;22;92448;-59
2024/02/18 04:04:24;;;;;;;3.72;2.67;;;21.60;59.60;;;;;;6151406;22;92384;-59
2024/02/18 04:06:51;;;;;;;4.75;2.80;;;21.60;59.60;;;;;;6122978;22;93523;-59
2024/02/18 04:09:17;;;;;;;4.13;2.75;;;21.50;59.40;;;;;;6122437;22;94119;-59
2024/02/18 04:11:43;;;;;;;3.80;2.70;;;21.50;59.30;;;;;;6123384;22;92076;-59
2024/02/18 04:14:09;;;;;;;3.47;2.40;;;21.50;59.40;;;;;;6150353;22;92322;-59
2024/02/18 04:16:35;;;;;;;3.83;2.70;;;21.50;59.40;;;;;;6123817;22;95332;-60
2024/02/18 04:19:03;;;;;;;4.15;2.80;;;21.50;59.60;;;;;;6123600;22;93768;-59
2024/02/18 04:21:30;;;;;;;3.40;2.70;;;21.50;59.60;;;;;;6124864;22;92628;-59
2024/02/18 04:23:56;;;;;;;3.63;2.40;;;21.50;59.40;;;;;;6123375;22;92609;-59
2024/02/18 04:26:22;;;;;;;3.25;2.80;;;21.50;59.50;;;;;;6151026;22;93631;-59
2024/02/18 04:28:48;;;;;;;3.35;2.65;;;21.50;59.50;;;;;;6152323;22;93242;-60
2024/02/18 04:31:14;;;;;;;3.00;2.40;;;21.50;59.40;;;;;;6151089;22;92048;-60
2024/02/18 04:33:42;;;;;;;3.67;2.88;;;21.50;59.40;;;;;;6122425;22;91937;-59
2024/02/18 04:36:08;;;;;;;3.78;2.55;;;21.50;59.40;;;;;;6123094;22;94087;-59
2024/02/18 04:38:34;;;;;;;3.58;2.80;;;21.40;59.60;;;;;;6124136;22;92651;-59
2024/02/18 04:41:00;;;;;;;4.70;2.55;;;21.50;59.60;;;;;;6151207;22;93283;-59
2024/02/18 04:43:26;;;;;;;2.72;2.08;;;21.40;59.50;;;;;;6151780;22;92159;-59
2024/02/18 04:45:51;;;;;;;3.35;2.25;;;21.50;59.30;;;;;;6150252;22;92651;-60
2024/02/18 04:48:17;;;;;;;3.17;2.63;;;21.40;59.50;;;;;;6148764;22;93005;-59
2024/02/18 04:50:42;;;;;;;4.40;2.72;;;21.40;59.40;;;;;;6149641;22;92106;-59
2024/02/18 04:53:08;;;;;;;3.30;2.55;;;21.40;59.60;;;;;;6149422;22;92384;-59
2024/02/18 04:55:34;;;;;;;5.70;2.78;;;21.40;59.80;;;;;;6148928;22;93700;-60
2024/02/18 04:57:59;;;;;;;3.83;2.60;;;21.40;59.50;;;;;;6150486;22;92779;-60
2024/02/18 05:00:26;;;;;;;3.67;2.50;;;21.40;59.40;;;;;;6150416;22;92410;-59
2024/02/18 05:02:53;;;;;;;3.90;2.78;;;21.40;60.20;;;;;;6121052;22;92272;-60
2024/02/18 05:05:19;;;;;;;3.33;2.50;;;21.40;59.50;;;;;;6095912;22;94344;-60
2024/02/18 05:07:46;;;;;;;3.28;2.58;;;21.40;59.60;;;;;;6121652;22;94029;-60
2024/02/18 05:10:11;;;;;;;3.08;2.47;;;21.30;59.30;;;;;;6120122;22;92631;-59
2024/02/18 05:12:37;;;;;;;2.25;2.05;;;21.30;59.40;;;;;;6120928;22;92569;-60
2024/02/18 05:15:04;;;;;;;4.05;2.72;;;21.30;59.20;;;;;;6147191;22;92588;-59
2024/02/18 05:17:29;;;;;;;2.53;2.28;;;21.30;59.30;;;;;;6146452;22;92820;-59
2024/02/18 05:19:55;;;;;;;3.78;2.35;;;21.30;59.40;;;;;;6150544;22;91911;-58
2024/02/18 05:22:23;;;;;;;1.98;1.73;;;21.30;59.30;;;;;;6148416;22;91403;-59
2024/02/18 05:24:49;;;;;;;3.42;2.30;;;21.30;59.20;;;;;;6119643;22;94312;-60
2024/02/18 05:27:14;;;;;;;2.75;2.42;;;21.30;59.20;;;;;;6120473;22;94164;-59
2024/02/18 05:29:41;;;;;;;4.10;2.95;;;21.30;59.40;;;;;;6120227;22;93526;-58
2024/02/18 05:32:08;;;;;;;3.22;2.53;;;21.30;59.20;;;;;;6121813;22;92409;-59
2024/02/18 05:34:35;;;;;;;2.67;2.17;;;21.30;59.10;;;;;;6122103;22;93373;-58
2024/02/18 05:37:01;;;;;;;2.78;2.28;;;21.30;59.10;;;;;;6122155;22;93847;-59
2024/02/18 05:39:27;;;;;;;3.00;2.35;;;21.30;59.20;;;;;;6148880;22;92512;-59
2024/02/18 05:41:53;;;;;;;2.72;2.17;;;21.20;59.10;;;;;;6123271;22;93094;-59
2024/02/18 05:44:19;;;;;;;3.40;2.47;;;21.30;59.00;;;;;;6147449;22;93548;-59
2024/02/18 05:46:44;;;;;;;3.17;2.42;;;21.30;59.10;;;;;;6123176;22;93530;-57
2024/02/18 05:49:10;;;;;;;2.38;2.13;;;21.20;59.00;;;;;;6148760;22;92495;-60
2024/02/18 05:51:36;;;;;;;2.78;2.28;;;21.30;59.10;;;;;;6144967;22;92286;-59
2024/02/18 05:54:03;;;;;;;3.08;2.45;;;21.20;59.10;;;;;;6144303;22;94554;-59
2024/02/18 05:56:28;;;;;;;3.45;2.65;;;21.20;59.20;;;;;;6120701;22;93637;-54
2024/02/18 05:58:54;;;;;;;2.13;1.80;;;21.20;59.10;;;;;;6151024;22;92230;-59
2024/02/18 06:01:20;;;;;;;3.55;2.30;;;21.20;59.40;;;;;;6121332;22;92013;-60
2024/02/18 06:03:46;;;;;;;3.10;2.33;;;21.20;59.30;;;;;;6119864;22;94624;-59
2024/02/18 06:06:11;;;;;;;2.92;2.42;;;21.20;59.20;;;;;;6149916;22;93202;-59
2024/02/18 06:08:37;;;;;;;2.72;2.00;;;21.20;59.30;;;;;;6123495;22;92574;-59
2024/02/18 06:11:07;;;;;;;2.90;2.25;;;21.20;59.00;;;;;;6122843;22;92047;-60
2024/02/18 06:13:33;;;;;;;2.60;1.92;;;21.20;59.20;;;;;;6149962;22;92301;-59
2024/02/18 06:15:59;;;;;;;2.92;2.03;;;21.20;59.00;;;;;;6148635;22;92352;-59
2024/02/18 06:18:24;;;;;;;2.58;1.88;;;21.20;59.10;;;;;;6146065;22;93133;-58
2024/02/18 06:20:50;;;;;;;2.72;1.92;;;21.10;58.80;;;;;;6149446;22;92288;-58
2024/02/18 06:23:16;;;;;;;3.03;2.58;;;21.20;59.10;;;;;;6121242;22;93169;-59
2024/02/18 06:25:41;;;;;;;2.40;1.83;;;21.20;59.00;;;;;;6122420;22;94158;-58
2024/02/18 06:28:08;;;;;;;3.47;2.45;;;21.10;58.80;;;;;;6115111;22;91950;-59
2024/02/18 06:30:38;;;;;;;4.20;2.08;;;21.10;59.00;;;;;;6145122;22;91925;-60
2024/02/18 06:33:05;;;;;;;2.88;2.15;;;21.10;59.00;;;;;;6119243;22;94643;-59
2024/02/18 06:35:30;;;;;;;3.20;2.25;;;21.10;58.90;;;;;;6121353;22;93212;-59
2024/02/18 06:37:56;;;;;;;4.30;2.38;;;21.10;58.90;;;;;;6150111;22;92543;-60
2024/02/18 06:40:21;;;;;;;3.03;2.42;;;21.10;59.10;;;;;;6144516;22;92364;-60
2024/02/18 06:42:47;;;;;;;2.42;2.15;;;21.10;59.00;;;;;;6138097;22;93645;-59
2024/02/18 06:45:14;;;;;;;2.85;2.05;;;21.10;58.90;;;;;;6139084;22;93202;-59
2024/02/18 06:47:40;;;;;;;2.58;2.10;;;21.10;59.00;;;;;;6143943;22;91987;-59
2024/02/18 06:50:06;;;;;;;2.33;1.80;;;21.10;59.40;;;;;;6143624;22;92314;-59
2024/02/18 06:52:32;;;;;;;2.45;1.90;;;21.10;59.00;;;;;;6147959;22;93569;-57
2024/02/18 06:54:59;;;;;;;2.45;2.05;;;21.10;59.00;;;;;;6119810;22;93515;-59
2024/02/18 06:57:25;;;;;;;3.40;2.20;;;21.10;58.90;;;;;;6118376;22;92302;-59
2024/02/18 06:59:51;;;;;;;2.20;1.98;;;21.10;58.90;;;;;;6147015;22;91693;-58
2024/02/18 07:02:16;;;;;;;2.13;1.92;;;21.10;59.00;;;;;;6146597;22;93222;-59
2024/02/18 07:04:42;;;;;;;2.72;2.38;;;21.10;59.00;;;;;;6121408;22;93148;-59
2024/02/18 07:07:08;;;;;;;2.67;2.10;;;21.10;58.80;;;;;;6148389;22;93192;-59
2024/02/18 07:09:34;;;;;;;3.20;2.22;;;21.10;58.90;;;;;;6096901;22;92063;-59
2024/02/18 07:11:59;;;;;;;2.28;1.63;;;21.10;58.80;;;;;;6148139;22;93260;-59
2024/02/18 07:14:26;;;;;;;2.58;2.10;;;21.10;58.80;;;;;;6148493;22;92600;-59
2024/02/18 07:16:51;;;;;;;3.35;2.17;;;21.10;58.80;;;;;;6098008;22;92113;-59
2024/02/18 07:19:19;;;;;;;2.63;1.70;;;21.10;58.80;;;;;;6096763;22;92677;-59
2024/02/18 07:21:44;;;;;;;2.63;2.13;;;21.10;59.00;;;;;;6147570;22;92619;-59
2024/02/18 07:24:10;;;;;;;2.25;1.77;;;21.00;58.70;;;;;;6146842;22;92287;-59
2024/02/18 07:26:37;;;;;;;2.33;1.80;;;21.00;58.60;;;;;;6148362;22;91930;-59
2024/02/18 07:29:03;;;;;;;2.85;2.00;;;21.00;58.70;;;;;;6113368;22;92422;-59
2024/02/18 07:31:30;;;;;;;3.05;1.88;;;21.00;58.80;;;;;;6148346;22;93965;-59
2024/02/18 07:33:56;;;;;;;2.30;2.08;;;21.00;58.70;;;;;;6147925;22;94266;-59
2024/02/18 07:36:24;;;;;;;2.20;1.65;;;21.00;58.60;;;;;;6148686;22;93449;-59
2024/02/18 07:38:50;;;;;;;2.38;1.90;;;21.00;58.70;;;;;;6117960;22;92041;-59
2024/02/18 07:41:16;;;;;;;4.32;2.03;;;21.00;58.70;;;;;;6146850;22;93027;-60
2024/02/18 07:43:41;;;;;;;2.28;1.70;;;21.00;58.90;;;;;;6147975;22;92228;-58
2024/02/18 07:46:11;;;;;;;3.90;2.15;;;21.00;58.20;;;;;;6147265;22;91952;-58
2024/02/18 07:48:36;;;;;;;3.40;1.60;;;21.00;57.90;;;;;;6146980;22;91609;-59
2024/02/18 07:51:02;;;;;;;10.75;3.65;;;21.00;57.40;;;;;;6120095;22;93564;-58
2024/02/18 07:53:29;;;;;;;41.42;10.02;;;21.00;57.60;;;;;;6147819;22;93608;-58
2024/02/18 07:55:55;;;;;;;59.15;15.25;;;21.00;57.60;;;;;;6120838;22;93328;-57
2024/02/18 07:58:20;;;;;;;51.22;11.82;;;21.00;58.10;;;;;;6117811;22;92356;-56
2024/02/18 08:00:47;;;;;;;40.63;11.35;;;21.00;57.90;;;;;;6145287;22;93775;-58
2024/02/18 08:03:14;;;;;;;53.45;15.32;;;21.00;58.20;;;;;;6120171;22;92486;-53
2024/02/18 08:05:41;;;;;;;50.80;13.82;;;21.10;58.90;;;;;;6119188;22;92411;-57
2024/02/18 08:08:07;;;;;;;44.15;12.45;;;21.10;59.00;;;;;;6146813;22;92159;-59
2024/02/18 08:10:33;;;;;;;53.17;13.57;;;21.20;59.30;;;;;;6120472;22;94796;-58
2024/02/18 08:12:59;;;;;;;47.58;13.38;;;21.20;59.60;;;;;;6142351;22;92674;-59
2024/02/18 08:15:24;;;;;;;48.95;14.48;;;21.30;59.30;;;;;;6144992;22;92201;-58
2024/02/18 08:17:52;;;;;;;46.38;12.75;;;21.30;59.40;;;;;;6116280;22;92765;-58
2024/02/18 08:20:18;;;;;;;47.50;13.00;;;21.40;59.30;;;;;;6116515;22;94241;-58
2024/02/18 08:22:44;;;;;;;39.72;12.50;;;21.40;59.10;;;;;;6119195;22;94303;-59
2024/02/18 08:25:09;;;;;;;47.60;13.50;;;21.50;59.10;;;;;;6145783;22;92409;-59
2024/02/18 08:27:35;;;;;;;35.20;11.70;;;21.50;59.30;;;;;;6143858;22;91918;-60
2024/02/18 08:30:02;;;;;;;34.25;11.35;;;21.50;59.20;;;;;;6146206;22;93105;-59
2024/02/18 08:32:29;;;;;;;40.05;12.85;;;21.60;59.00;;;;;;6119593;22;93661;-57
2024/02/18 08:34:55;;;;;;;43.15;12.57;;;21.60;59.20;;;;;;6120676;22;92352;-62
2024/02/18 08:37:21;;;;;;;38.30;11.15;;;21.60;58.50;;;;;;6147744;22;91661;-61
2024/02/18 08:39:47;;;;;;;40.90;10.80;;;21.60;58.00;;;;;;6116702;22;94563;-64
2024/02/18 08:42:13;;;;;;;32.33;10.05;;;21.70;58.00;;;;;;6145138;22;92558;-63
2024/02/18 08:44:38;;;;;;;47.67;10.88;;;21.70;58.20;;;;;;6147345;22;93832;-64
2024/02/18 08:47:04;;;;;;;43.92;10.85;;;21.70;58.70;;;;;;6116586;22;92398;-57
2024/02/18 08:49:30;;;;;;;40.13;11.18;;;21.70;58.60;;;;;;6120500;22;94893;-56
2024/02/18 08:51:58;;;;;;;35.05;10.55;;;21.80;58.20;;;;;;6146716;22;92685;-56
2024/02/18 08:54:24;;;;;;;41.33;10.05;;;21.70;57.90;;;;;;6095088;22;92546;-58
2024/02/18 08:56:51;;;;;;;31.90;9.20;;;21.80;58.40;;;;;;6120011;22;92712;-56
2024/02/18 08:59:17;;;;;;;35.30;7.03;;;21.80;58.30;;;;;;6149281;22;93007;-59
2024/02/18 09:01:43;;;;;;;36.90;8.13;;;21.80;57.90;;;;;;6122999;22;93662;-57
2024/02/18 09:04:10;;;;;;;35.95;8.93;;;21.80;58.30;;;;;;6147779;22;92630;-59
2024/02/18 09:06:37;;;;;;;99.43;14.60;;;21.80;58.20;;;;;;6120374;22;92109;-59
2024/02/18 09:09:03;;;;;;;46.85;8.35;;;21.70;58.10;;;;;;6118307;22;94799;-59
2024/02/18 09:11:29;;;;;;;46.30;9.40;;;21.70;58.20;;;;;;6120396;22;94635;-55
2024/02/18 09:13:55;;;;;;;178.98;22.58;;;21.70;58.40;;;;;;6149007;22;92473;-53
2024/02/18 09:16:20;;;;;;;52.28;9.40;;;21.70;58.80;;;;;;6147367;22;92475;-58
2024/02/18 12:55:45;;;;;;;30.50;6.13;;;19.50;57.30;;;;;;5083954;27;86061;-50
2024/02/18 12:58:12;;;;;;;8.30;2.70;;;19.60;57.90;;;;;;5043538;27;86287;-58
2024/02/18 13:00:39;;;;;;;5.75;2.47;;;19.60;58.00;;;;;;5047389;27;86031;-42
2024/02/18 13:03:07;;;;;;;17.50;3.47;;;19.70;58.00;;;;;;5071911;27;87335;-53
2024/02/18 13:05:35;;;;;;;10.77;3.10;;;19.90;57.90;;;;;;5073636;27;86381;-40
2024/02/18 13:08:04;;;;;;;9.50;2.42;;;20.10;57.30;;;;;;5054749;27;86220;-42
2024/02/18 13:10:31;;;;;;;5.20;2.42;;;20.30;56.70;;;;;;5051899;27;85985;-42
2024/02/18 13:12:57;;;;;;;6.55;2.42;;;20.50;56.10;;;;;;5052485;27;87066;-49
2024/02/18 13:15:23;;;;;;;13.55;2.70;;;20.70;55.50;;;;;;5051968;27;86160;-41
2024/02/18 13:17:51;;;;;;;6.80;2.97;;;21.00;55.20;;;;;;5071952;27;85723;-42
2024/02/18 13:20:16;;;;;;;5.40;2.55;;;21.20;54.90;;;;;;5072506;27;85733;-40
2024/02/18 13:22:42;;;;;;;8.55;2.50;;;21.40;54.20;;;;;;5071506;27;87781;-42
2024/02/18 13:25:09;;;;;;;8.43;2.42;;;21.50;53.60;;;;;;5052554;27;86029;-38
2024/02/18 13:27:34;;;;;;;6.85;2.85;;;21.70;53.30;;;;;;5070792;27;86017;-42
2024/02/18 13:30:01;;;;;;;5.10;2.30;;;21.90;53.10;;;;;;5070946;27;86142;-39
2024/02/18 13:32:26;;;;;;;4.88;2.28;;;22.00;52.70;;;;;;5072174;27;87413;-40
2024/02/18 13:34:53;;;;;;;6.47;2.30;;;22.20;52.40;;;;;;5072441;27;86997;-43
2024/02/18 13:37:19;;;;;;;8.82;2.03;;;22.30;52.10;;;;;;5053456;27;85868;-59
2024/02/18 13:39:45;;;;;;;3.55;1.63;;;22.40;51.80;;;;;;5071853;27;85962;-63
2024/02/18 13:42:12;;;;;;;7.43;2.42;;;22.60;51.50;;;;;;5073195;27;86279;-58
2024/02/18 13:44:39;;;;;;;6.03;2.40;;;22.70;51.40;;;;;;5053413;27;87542;-59
2024/02/18 13:47:05;;;;;;;6.32;2.10;;;22.80;51.20;;;;;;5071739;27;86066;-65
2024/02/18 13:49:40;;;;;;;69.57;9.18;;;22.90;51.10;;;;;;5054030;27;86014;-60
2024/02/18 13:52:06;;;;;;;21.88;5.22;;;23.00;50.90;;;;;;5067278;27;87075;-61
2024/02/18 13:54:32;;;;;;;24.88;4.47;;;23.10;50.70;;;;;;5071514;27;86066;-60
2024/02/18 13:56:58;;;;;;;9.07;3.08;;;23.20;50.50;;;;;;5054403;27;85693;-61
2024/02/18 13:59:24;;;;;;;11.77;2.50;;;23.30;50.30;;;;;;5053815;27;85592;-53
2024/02/18 14:01:52;;;;;;;5.43;1.80;;;23.40;50.30;;;;;;5072658;27;86644;-58
2024/02/18 14:04:18;;;;;;;7.45;2.30;;;23.50;50.10;;;;;;5070305;27;86135;-46
2024/02/18 14:06:44;;;;;;;6.90;2.60;;;23.60;49.90;;;;;;5059288;27;85971;-43
2024/02/18 14:09:14;;;;;;;6.07;2.40;;;23.70;49.90;;;;;;5053000;27;86120;-44
2024/02/18 14:11:41;;;;;;;5.55;2.40;;;23.80;49.80;;;;;;5056584;27;86164;-41
2024/02/18 14:14:08;;;;;;;8.07;2.88;;;23.80;49.70;;;;;;5056994;27;86900;-52
2024/02/18 14:16:36;;;;;;;7.35;3.65;;;23.90;49.60;;;;;;5057944;27;86557;-53
2024/02/18 14:19:03;;;;;;;10.10;4.07;;;24.00;49.50;;;;;;5059021;27;85702;-49
2024/02/18 14:21:30;;;;;;;12.13;4.32;;;24.00;49.50;;;;;;5058641;27;85930;-54
2024/02/18 14:23:58;;;;;;;11.02;5.03;;;24.10;49.40;;;;;;5039844;27;87286;-51
2024/02/18 14:26:23;;;;;;;18.70;6.28;;;24.20;49.50;;;;;;5041181;27;86664;-50
2024/02/18 14:28:49;;;;;;;15.75;5.10;;;24.20;49.30;;;;;;5058163;27;86021;-48
2024/02/18 14:31:15;;;;;;;19.52;6.10;;;24.30;49.30;;;;;;5056950;27;87681;-39
2024/02/18 14:33:40;;;;;;;20.58;6.38;;;24.30;49.40;;;;;;5058009;27;86303;-41
2024/02/18 14:36:06;;;;;;;14.65;6.72;;;24.40;49.40;;;;;;5058636;27;85996;-47
2024/02/18 14:38:32;;;;;;;19.20;5.82;;;24.50;49.50;;;;;;5051805;27;86315;-40
2024/02/18 14:40:58;;;;;;;17.08;6.60;;;24.50;49.50;;;;;;5058380;27;87413;-46
2024/02/18 14:43:26;;;;;;;13.45;6.07;;;24.60;49.60;;;;;;5058323;27;86354;-42
2024/02/18 14:45:52;;;;;;;17.48;6.63;;;24.60;49.60;;;;;;5039370;27;88669;-44
2024/02/18 14:48:18;;;;;;;19.67;7.20;;;24.70;49.60;;;;;;5058018;27;86299;-47
2024/02/18 14:50:46;;;;;;;15.73;5.97;;;24.70;49.80;;;;;;5036908;27;87620;-49
2024/02/18 14:53:12;;;;;;;14.50;6.85;;;24.70;49.50;;;;;;5037236;27;86891;-46
2024/02/18 14:55:39;;;;;;;18.92;7.68;;;24.80;49.40;;;;;;5038833;27;85929;-47
2024/02/18 14:58:05;;;;;;;18.00;6.75;;;24.80;49.40;;;;;;5055593;27;87288;-42
2024/02/18 15:00:31;;;;;;;15.70;6.18;;;24.80;49.40;;;;;;5037933;27;87553;-38
2024/02/18 15:02:57;;;;;;;15.25;6.05;;;24.80;49.30;;;;;;5035353;27;86960;-48
2024/02/18 15:05:23;;;;;;;21.17;6.80;;;24.90;49.30;;;;;;5053131;27;86316;-41
2024/02/18 15:07:52;;;;;;;13.15;5.68;;;24.90;49.20;;;;;;5032365;27;86066;-48
2024/02/18 15:10:19;;;;;;;13.77;6.13;;;24.90;49.20;;;;;;5031053;27;86777;-40
2024/02/18 15:12:45;;;;;;;13.40;5.50;;;25.00;49.30;;;;;;5028250;27;86728;-49
2024/02/18 15:15:11;;;;;;;18.08;6.28;;;25.00;49.00;;;;;;5052454;27;86576;-43
2024/02/18 15:17:37;;;;;;;19.85;7.78;;;25.00;48.90;;;;;;5034572;27;86161;-45
2024/02/18 15:20:06;;;;;;;16.73;6.55;;;25.00;48.70;;;;;;5054007;27;88037;-40
2024/02/18 15:22:32;;;;;;;20.67;7.40;;;25.00;48.70;;;;;;5037183;27;86930;-47
2024/02/18 15:24:57;;;;;;;20.98;7.05;;;25.00;48.70;;;;;;5056723;27;85773;-45
2024/02/18 15:27:23;;;;;;;12.85;5.53;;;25.10;48.90;;;;;;5038027;27;85995;-42
2024/02/18 15:29:51;;;;;;;25.10;6.40;;;25.10;48.90;;;;;;5037813;27;86521;-42
2024/02/18 15:32:16;;;;;;;23.13;6.25;;;25.10;49.00;;;;;;5057019;27;86276;-42
2024/02/18 15:34:42;;;;;;;13.52;6.07;;;25.10;49.00;;;;;;5057551;27;85861;-45
2024/02/18 15:37:07;;;;;;;15.35;5.60;;;25.20;49.40;;;;;;5056680;27;85957;-40
2024/02/18 15:39:33;;;;;;;12.52;5.43;;;25.20;49.50;;;;;;5056851;27;86105;-45
2024/02/18 15:41:59;;;;;;;17.05;5.75;;;25.30;49.60;;;;;;5038476;27;86820;-43
2024/02/18 15:44:27;;;;;;;14.20;5.20;;;25.30;49.80;;;;;;5041758;27;86378;-42
2024/02/18 15:46:53;;;;;;;12.63;5.10;;;25.30;49.90;;;;;;5057621;27;85919;-42
2024/02/18 15:49:20;;;;;;;17.52;5.63;;;25.40;49.90;;;;;;5037940;27;87765;-42
2024/02/18 15:51:47;;;;;;;13.55;5.35;;;25.50;50.00;;;;;;5054947;27;85697;-43
2024/02/18 15:54:12;;;;;;;13.10;5.22;;;25.50;49.80;;;;;;5036424;27;86171;-41
2024/02/18 15:56:38;;;;;;;11.30;4.60;;;25.60;49.90;;;;;;5055037;27;85667;-41
2024/02/18 15:59:04;;;;;;;8.82;3.90;;;25.60;49.80;;;;;;5054855;27;86368;-43
2024/02/18 16:01:37;;;;;;;6.57;3.35;;;25.60;49.50;;;;;;5035784;27;87317;-43
2024/02/18 16:04:03;;;;;;;8.05;3.38;;;25.70;49.30;;;;;;5054099;27;85623;-46
2024/02/18 16:06:35;;;;;;;6.60;3.00;;;25.70;49.00;;;;;;5053720;27;86276;-39
2024/02/18 16:09:05;;;;;;;7.95;3.22;;;25.70;49.00;;;;;;5055127;27;86406;-44
2024/02/18 16:11:31;;;;;;;7.28;3.00;;;25.80;49.00;;;;;;5036334;27;88205;-41
2024/02/18 16:13:58;;;;;;;8.63;4.03;;;25.80;48.70;;;;;;5051078;27;86455;-50